Time;durP1;ratioP1;P1;durP2;ratioP2;P2;SDS_P1;SDS_P2;PMS_P1;PMS_P2;Temp;Humidity;BMP_temperature;BMP_pressure;BME280_temperature;BME280_humidity;BME280_pressure;Samples;Min_cycle;Max_cycle;Signal;HPM_P1;HPM_P2
2023/01/06 00:02:23;;;;;;;3.85;2.78;;;8.30;99.90;;;;;;5117431;27;20036;-76
2023/01/06 00:04:48;;;;;;;5.50;2.58;;;8.30;99.90;;;;;;5118277;27;20043;-77
2023/01/06 00:07:14;;;;;;;2.72;2.10;;;8.30;99.90;;;;;;5117861;27;20028;-77
2023/01/06 00:09:40;;;;;;;2.20;2.00;;;8.20;99.90;;;;;;5119007;27;20027;-77
2023/01/06 00:12:07;;;;;;;1.90;1.80;;;8.10;99.90;;;;;;5116978;28;20056;-77
2023/01/06 00:14:32;;;;;;;2.15;1.95;;;8.00;99.90;;;;;;5108311;28;20267;-77
2023/01/06 00:16:58;;;;;;;2.17;1.98;;;7.90;99.90;;;;;;5115567;27;20028;-77
2023/01/06 00:19:24;;;;;;;2.40;2.13;;;7.90;99.90;;;;;;5116623;27;20057;-77
2023/01/06 00:21:49;;;;;;;2.45;2.25;;;7.90;99.90;;;;;;5116652;28;20027;-77
2023/01/06 00:24:15;;;;;;;3.22;2.25;;;7.90;99.90;;;;;;5123511;27;20048;-77
2023/01/06 00:26:40;;;;;;;4.68;3.60;;;7.90;99.90;;;;;;5117548;27;20035;-77
2023/01/06 00:29:09;;;;;;;4.72;4.20;;;7.90;99.90;;;;;;5118499;27;20044;-77
2023/01/06 00:31:36;;;;;;;3.90;3.55;;;7.80;99.90;;;;;;5116273;27;20063;-77
2023/01/06 00:34:02;;;;;;;4.70;3.28;;;7.80;99.90;;;;;;5115474;27;20036;-77
2023/01/06 00:36:28;;;;;;;4.00;3.60;;;7.80;99.90;;;;;;5115580;27;20054;-77
2023/01/06 00:38:53;;;;;;;3.10;2.78;;;7.70;99.90;;;;;;5117303;27;20023;-77
2023/01/06 00:44:04;;;;;;;5.05;3.22;;;7.80;99.90;;;;;;5114827;28;20043;-76
2023/01/06 00:46:32;;;;;;;2.75;2.22;;;7.80;99.90;;;;;;5118927;27;20028;-77
2023/01/06 00:49:00;;;;;;;2.53;2.17;;;7.70;99.90;;;;;;5121386;27;20028;-77
2023/01/06 00:51:26;;;;;;;2.60;2.10;;;7.70;99.90;;;;;;5110859;28;20070;-77
2023/01/06 00:53:51;;;;;;;2.53;2.03;;;7.60;99.90;;;;;;5118594;27;20020;-77
2023/01/06 00:56:17;;;;;;;1.85;1.75;;;7.60;99.90;;;;;;5112222;27;20032;-76
2023/01/06 00:58:43;;;;;;;2.33;2.00;;;7.60;99.90;;;;;;5120279;27;20031;-78
2023/01/06 01:01:09;;;;;;;2.85;1.90;;;7.60;99.90;;;;;;5116247;28;20035;-78
2023/01/06 01:03:36;;;;;;;2.28;2.08;;;7.60;99.90;;;;;;5116940;27;20043;-77
2023/01/06 01:06:04;;;;;;;3.03;2.03;;;7.60;99.90;;;;;;5114324;28;20099;-77
2023/01/06 01:08:30;;;;;;;2.60;2.40;;;7.60;99.90;;;;;;5118940;28;20067;-77
2023/01/06 01:11:03;;;;;;;4.03;2.33;;;7.50;99.90;;;;;;5128425;27;20096;-77
2023/01/06 01:13:28;;;;;;;17.08;7.97;;;7.40;99.90;;;;;;5118526;28;20032;-77
2023/01/06 01:15:54;;;;;;;9.23;4.88;;;7.40;99.90;;;;;;5123296;27;20030;-77
2023/01/06 01:18:19;;;;;;;7.07;4.47;;;7.40;99.90;;;;;;5114868;27;20093;-78
2023/01/06 01:20:46;;;;;;;8.25;4.25;;;7.40;99.90;;;;;;5110731;27;20027;-77
2023/01/06 01:23:12;;;;;;;4.95;3.65;;;7.40;99.90;;;;;;5114562;28;20032;-77
2023/01/06 01:25:39;;;;;;;6.10;3.15;;;7.50;99.90;;;;;;5114523;27;20043;-77
2023/01/06 01:28:05;;;;;;;4.03;3.08;;;7.50;99.90;;;;;;5113532;27;20032;-77
2023/01/06 01:30:31;;;;;;;2.17;1.98;;;7.50;99.90;;;;;;5110019;28;20480;-78
2023/01/06 01:32:57;;;;;;;1.70;1.58;;;7.40;99.90;;;;;;5120860;27;20054;-76
2023/01/06 01:35:22;;;;;;;2.38;1.80;;;7.10;99.90;;;;;;5110590;28;20032;-77
2023/01/06 01:37:48;;;;;;;2.05;1.85;;;7.00;99.90;;;;;;5117244;28;20057;-77
2023/01/06 01:40:14;;;;;;;1.80;1.67;;;7.00;99.90;;;;;;5118690;28;20020;-77
2023/01/06 01:42:39;;;;;;;2.10;1.90;;;6.90;99.90;;;;;;5122951;28;20043;-78
2023/01/06 01:45:24;;;;;;;2.40;2.20;;;6.90;99.90;;;;;;5116755;28;20043;-77
2023/01/06 01:47:49;;;;;;;2.50;2.28;;;6.90;99.90;;;;;;5116300;28;20135;-77
2023/01/06 01:50:38;;;;;;;2.28;2.00;;;7.00;99.90;;;;;;5116576;28;20054;-77
2023/01/06 01:53:14;;;;;;;3.17;2.10;;;7.10;99.90;;;;;;5113334;28;20061;-76
2023/01/06 01:55:40;;;;;;;2.50;2.30;;;7.10;99.90;;;;;;5120663;28;20480;-77
2023/01/06 01:58:05;;;;;;;3.17;2.00;;;7.00;99.90;;;;;;5113681;28;20074;-77
2023/01/06 02:00:31;;;;;;;3.53;2.70;;;7.00;99.90;;;;;;5122816;28;20027;-77
2023/01/06 02:02:57;;;;;;;2.50;2.08;;;7.00;99.90;;;;;;5115023;28;20036;-77
2023/01/06 02:05:24;;;;;;;3.17;2.13;;;7.10;99.90;;;;;;5123191;28;20024;-77
2023/01/06 02:07:50;;;;;;;2.28;2.08;;;7.10;99.90;;;;;;5117138;27;20049;-77
2023/01/06 02:10:20;;;;;;;3.35;2.42;;;7.10;99.90;;;;;;5123793;28;20012;-77
2023/01/06 02:12:48;;;;;;;2.10;2.00;;;7.00;99.90;;;;;;5116892;27;20043;-78
2023/01/06 02:15:24;;;;;;;2.70;2.28;;;6.80;99.90;;;;;;5118046;28;20028;-78
2023/01/06 02:18:11;;;;;;;2.33;1.90;;;6.80;99.90;;;;;;5113645;28;20057;-77
2023/01/06 02:21:26;;;;;;;4.27;2.40;;;6.50;99.90;;;;;;5115911;28;20074;-77
2023/01/06 02:24:23;;;;;;;3.30;2.35;;;6.60;99.90;;;;;;5104195;28;20312;-77
2023/01/06 02:26:52;;;;;;;3.60;2.65;;;6.70;99.90;;;;;;5084579;28;20480;-77
2023/01/06 02:29:30;;;;;;;3.90;2.58;;;6.80;99.90;;;;;;5111660;28;20044;-77
2023/01/06 02:31:58;;;;;;;4.32;2.70;;;6.90;99.90;;;;;;5122092;27;20069;-77
2023/01/06 02:35:05;;;;;;;3.25;2.58;;;6.90;99.90;;;;;;5120888;27;20079;-79
2023/01/06 02:38:10;;;;;;;2.83;2.30;;;7.00;99.90;;;;;;5123077;27;20076;-77
2023/01/06 02:40:59;;;;;;;3.90;2.40;;;7.00;99.90;;;;;;5117171;27;20035;-77
2023/01/06 02:43:30;;;;;;;4.57;2.55;;;7.00;99.90;;;;;;5118987;27;20052;-77
2023/01/06 02:46:42;;;;;;;2.70;2.08;;;7.00;99.90;;;;;;5118056;27;20099;-77
2023/01/06 02:49:07;;;;;;;2.47;2.28;;;6.90;99.90;;;;;;5127076;27;20036;-77
2023/01/06 02:51:43;;;;;;;2.10;1.90;;;6.70;99.90;;;;;;5123969;27;20111;-77
2023/01/06 02:54:41;;;;;;;1.95;1.80;;;6.70;99.90;;;;;;5120125;27;20068;-77
2023/01/06 02:57:26;;;;;;;3.00;2.58;;;6.70;99.90;;;;;;5122225;27;20031;-76
2023/01/06 03:00:18;;;;;;;2.58;2.38;;;6.80;99.90;;;;;;5123752;27;20038;-77
2023/01/06 03:02:49;;;;;;;2.95;2.35;;;6.80;99.90;;;;;;5118600;27;20054;-77
2023/01/06 03:05:16;;;;;;;2.30;1.90;;;6.80;99.90;;;;;;5115829;27;20043;-77
2023/01/06 03:07:44;;;;;;;2.30;2.10;;;6.90;99.90;;;;;;5131600;27;20051;-77
2023/01/06 03:10:12;;;;;;;2.22;2.03;;;6.90;99.90;;;;;;5119121;27;20042;-77
2023/01/06 03:12:48;;;;;;;2.63;2.13;;;6.90;99.90;;;;;;5115550;27;20027;-77
2023/01/06 03:15:14;;;;;;;2.28;2.08;;;6.80;99.90;;;;;;5111399;27;20079;-77
2023/01/06 03:17:39;;;;;;;1.92;1.80;;;6.70;99.90;;;;;;5120748;27;20036;-78
2023/01/06 03:20:06;;;;;;;2.30;2.03;;;6.70;99.90;;;;;;5114662;27;20039;-77
2023/01/06 03:22:34;;;;;;;1.92;1.83;;;6.70;99.90;;;;;;5119973;27;20134;-77
2023/01/06 03:25:00;;;;;;;2.33;1.95;;;6.70;99.90;;;;;;5121068;27;20040;-77
2023/01/06 03:27:26;;;;;;;2.05;1.65;;;6.50;99.90;;;;;;5117925;27;20039;-76
2023/01/06 03:29:53;;;;;;;2.55;1.75;;;6.50;99.90;;;;;;5117460;27;20039;-77
2023/01/06 03:32:36;;;;;;;2.03;1.90;;;6.40;99.90;;;;;;5118528;27;20070;-77
2023/01/06 03:35:27;;;;;;;2.65;2.03;;;6.40;99.90;;;;;;5120191;27;20031;-77
2023/01/06 03:38:04;;;;;;;2.05;1.88;;;6.30;99.90;;;;;;5115691;27;21190;-77
2023/01/06 03:40:46;;;;;;;3.20;1.98;;;6.30;99.90;;;;;;5110640;27;20040;-77
2023/01/06 03:43:32;;;;;;;3.40;1.88;;;6.20;99.90;;;;;;5119277;27;20027;-76
2023/01/06 03:46:24;;;;;;;28.48;3.25;;;6.20;99.90;;;;;;5122092;27;20044;-77
2023/01/06 03:49:09;;;;;;;1.95;1.83;;;6.00;99.90;;;;;;5121667;28;20122;-77
2023/01/06 03:51:58;;;;;;;7.65;2.30;;;6.00;99.90;;;;;;5116177;27;20031;-77
2023/01/06 03:54:23;;;;;;;;;;;6.00;99.90;;;;;;5117113;27;20053;-77
2023/01/06 03:57:08;;;;;;;2.78;2.00;;;5.90;99.90;;;;;;5112796;27;19915;-78
2023/01/06 03:59:48;;;;;;;2.40;2.00;;;6.00;99.90;;;;;;5119043;27;20039;-77
2023/01/06 04:02:18;;;;;;;1.90;1.80;;;6.00;99.90;;;;;;5118486;28;20054;-77
2023/01/06 04:04:43;;;;;;;3.28;1.98;;;6.10;99.90;;;;;;5118391;27;20027;-76
2023/01/06 04:07:09;;;;;;;3.17;2.15;;;6.00;99.90;;;;;;5112194;28;20027;-77
2023/01/06 04:09:34;;;;;;;2.05;1.92;;;6.00;99.90;;;;;;5120975;27;20036;-77
2023/01/06 04:14:44;;;;;;;2.42;1.80;;;5.90;99.90;;;;;;5111021;28;20035;-77
2023/01/06 04:17:10;;;;;;;3.28;1.90;;;5.80;99.90;;;;;;5110700;27;20044;-77
2023/01/06 04:19:35;;;;;;;1.75;1.50;;;5.80;99.90;;;;;;5119868;27;20051;-77
2023/01/06 04:22:01;;;;;;;19.73;2.72;;;5.60;99.90;;;;;;5110275;27;20040;-77
2023/01/06 04:24:28;;;;;;;128.68;9.05;;;5.30;99.90;;;;;;5099875;28;20104;-77
2023/01/06 04:26:53;;;;;;;7.53;1.92;;;5.20;99.90;;;;;;5112802;28;20040;-77
2023/01/06 04:29:19;;;;;;;49.85;4.18;;;5.20;99.90;;;;;;5120038;28;20483;-77
2023/01/06 04:31:44;;;;;;;27.08;3.22;;;5.30;99.90;;;;;;5116622;27;20343;-77
2023/01/06 04:34:10;;;;;;;7.00;1.55;;;5.20;99.90;;;;;;5122079;27;20470;-77
2023/01/06 04:36:35;;;;;;;1.50;1.40;;;5.30;99.90;;;;;;5120570;27;20031;-77
2023/01/06 04:39:01;;;;;;;1.65;1.38;;;5.40;99.90;;;;;;5111920;27;20039;-76
2023/01/06 04:41:27;;;;;;;1.70;1.60;;;5.40;99.90;;;;;;5113820;27;20024;-77
2023/01/06 04:43:53;;;;;;;1.80;1.70;;;5.60;99.90;;;;;;5124046;27;20047;-77
2023/01/06 04:46:18;;;;;;;1.67;1.45;;;5.60;99.90;;;;;;5123451;27;20036;-77
2023/01/06 04:48:44;;;;;;;1.48;1.33;;;5.50;99.90;;;;;;5122880;28;20099;-77
2023/01/06 04:51:10;;;;;;;4.68;1.58;;;5.40;99.90;;;;;;5112520;27;20031;-77
2023/01/06 04:53:38;;;;;;;1.60;1.50;;;5.40;99.90;;;;;;5117534;27;20043;-77
2023/01/06 04:56:09;;;;;;;1.80;1.70;;;5.30;99.90;;;;;;5120481;27;20126;-77
2023/01/06 04:58:35;;;;;;;2.55;2.10;;;5.30;99.90;;;;;;5117674;27;20107;-77
2023/01/06 05:01:03;;;;;;;2.40;2.20;;;5.30;99.90;;;;;;5111165;27;20092;-77
2023/01/06 05:03:28;;;;;;;2.30;2.10;;;5.40;99.90;;;;;;5117191;27;20055;-77
2023/01/06 05:05:54;;;;;;;15.70;1.90;;;5.50;99.90;;;;;;5113329;27;20130;-77
2023/01/06 05:08:20;;;;;;;9.55;1.98;;;5.30;99.90;;;;;;5111761;27;20072;-77
2023/01/06 05:10:45;;;;;;;1.90;1.27;;;4.90;99.90;;;;;;5115171;27;20039;-77
2023/01/06 05:13:11;;;;;;;2.35;1.50;;;4.80;99.90;;;;;;5117144;27;20116;-77
2023/01/06 05:15:38;;;;;;;2.55;1.98;;;4.80;99.90;;;;;;5130285;27;20063;-77
2023/01/06 05:18:04;;;;;;;2.10;1.20;;;4.70;99.90;;;;;;5116072;27;20027;-77
2023/01/06 05:20:29;;;;;;;1.60;1.50;;;4.60;99.90;;;;;;5113653;27;20063;-77
2023/01/06 05:22:55;;;;;;;1.63;1.52;;;4.60;99.90;;;;;;5116947;27;20607;-76
2023/01/06 05:25:20;;;;;;;2.05;1.30;;;4.70;99.90;;;;;;5116781;28;20057;-77
2023/01/06 05:27:46;;;;;;;69.63;5.65;;;4.50;99.90;;;;;;5118399;27;20118;-76
2023/01/06 05:30:12;;;;;;;51.58;4.22;;;4.30;99.90;;;;;;5118715;27;20056;-77
2023/01/06 05:32:38;;;;;;;39.22;5.50;;;4.20;99.90;;;;;;5112104;28;20415;-77
2023/01/06 05:35:03;;;;;;;38.70;5.25;;;4.20;99.90;;;;;;5114636;28;20066;-77
2023/01/06 05:37:29;;;;;;;70.38;6.57;;;4.00;99.90;;;;;;5122973;28;20050;-77
2023/01/06 05:39:54;;;;;;;27.13;3.20;;;3.90;99.90;;;;;;5122100;28;20476;-77
2023/01/06 05:42:20;;;;;;;35.60;3.60;;;3.90;99.90;;;;;;5113443;28;20036;-77
2023/01/06 05:44:45;;;;;;;30.48;3.08;;;4.20;99.90;;;;;;5113016;28;20049;-76
2023/01/06 05:47:11;;;;;;;29.20;4.72;;;4.10;99.90;;;;;;5124755;28;20046;-77
2023/01/06 05:49:37;;;;;;;1.85;1.75;;;4.10;99.90;;;;;;5116466;28;20749;-77
2023/01/06 05:52:02;;;;;;;8.70;1.83;;;4.10;99.90;;;;;;5113026;28;20040;-77
2023/01/06 05:54:28;;;;;;;1.60;1.50;;;4.10;99.90;;;;;;5112277;28;20035;-77
2023/01/06 05:56:53;;;;;;;1.83;1.45;;;4.10;99.90;;;;;;5127808;27;20026;-77
2023/01/06 05:59:19;;;;;;;3.10;1.63;;;4.10;99.90;;;;;;5114270;28;20118;-77
2023/01/06 06:01:44;;;;;;;2.40;1.63;;;4.10;99.90;;;;;;5117623;27;20032;-77
2023/01/06 06:04:11;;;;;;;1.38;1.27;;;4.20;99.90;;;;;;5116939;27;20028;-77
2023/01/06 06:06:37;;;;;;;1.58;1.48;;;4.20;99.90;;;;;;5121808;27;21423;-76
2023/01/06 06:09:04;;;;;;;2.08;1.92;;;4.10;99.90;;;;;;5119143;27;20046;-77
2023/01/06 06:11:29;;;;;;;1.30;1.20;;;4.20;99.90;;;;;;5117998;27;20043;-77
2023/01/06 06:13:56;;;;;;;2.85;1.45;;;4.00;99.90;;;;;;5125763;28;20027;-77
2023/01/06 06:16:24;;;;;;;4.95;1.73;;;3.60;99.90;;;;;;5117425;27;20032;-77
2023/01/06 06:18:52;;;;;;;72.05;8.15;;;3.50;99.90;;;;;;5116227;27;20072;-76
2023/01/06 06:21:21;;;;;;;4.97;1.45;;;3.20;99.90;;;;;;5113643;27;20053;-77
2023/01/06 06:23:47;;;;;;;15.35;3.10;;;3.20;99.90;;;;;;5116914;27;20046;-77
2023/01/06 06:26:12;;;;;;;11.95;3.35;;;3.20;99.90;;;;;;5127633;27;20036;-77
2023/01/06 06:28:39;;;;;;;8.20;2.25;;;3.10;99.90;;;;;;5113641;28;20032;-77
2023/01/06 06:31:21;;;;;;;19.33;4.55;;;3.10;99.90;;;;;;5116836;27;20032;-76
2023/01/06 06:33:52;;;;;;;2.17;2.08;;;3.20;99.90;;;;;;5116216;27;20849;-77
2023/01/06 06:36:18;;;;;;;28.80;4.13;;;3.10;99.90;;;;;;5125010;27;20027;-77
2023/01/06 06:38:46;;;;;;;1.50;1.40;;;3.10;99.90;;;;;;5119878;27;20048;-77
2023/01/06 06:41:12;;;;;;;17.13;3.25;;;3.10;99.90;;;;;;5114599;27;20047;-77
2023/01/06 06:43:39;;;;;;;1.38;1.27;;;3.20;99.90;;;;;;5117788;27;20118;-77
2023/01/06 06:46:05;;;;;;;1.70;1.60;;;3.20;99.90;;;;;;5112248;27;20427;-77
2023/01/06 06:48:31;;;;;;;1.20;1.10;;;3.30;99.90;;;;;;5115083;27;20094;-77
2023/01/06 06:51:02;;;;;;;1.65;1.30;;;3.20;99.90;;;;;;5115586;27;20032;-77
2023/01/06 06:53:27;;;;;;;5.43;1.98;;;3.10;99.90;;;;;;5117385;28;20395;-77
2023/01/06 06:55:55;;;;;;;18.95;2.92;;;2.90;99.90;;;;;;5121287;28;20024;-77
2023/01/06 06:58:21;;;;;;;1.40;1.30;;;2.80;99.90;;;;;;5118125;28;20036;-76
2023/01/06 07:00:46;;;;;;;1.80;1.70;;;2.80;99.90;;;;;;5113521;27;20444;-76
2023/01/06 07:03:12;;;;;;;1.60;1.50;;;2.80;99.90;;;;;;5123498;27;20042;-77
2023/01/06 07:05:38;;;;;;;1.20;1.20;;;3.00;99.90;;;;;;5110330;28;20158;-77
2023/01/06 07:08:04;;;;;;;1.95;1.40;;;2.80;99.90;;;;;;5127787;27;20027;-77
2023/01/06 07:10:29;;;;;;;1.50;1.40;;;2.80;99.90;;;;;;5115288;27;20035;-77
2023/01/06 07:12:55;;;;;;;1.60;1.50;;;3.00;99.90;;;;;;5121681;27;20036;-77
2023/01/06 07:15:20;;;;;;;1.75;1.65;;;3.10;99.90;;;;;;5115865;28;20109;-77
2023/01/06 07:17:46;;;;;;;1.70;1.60;;;3.20;99.90;;;;;;5118921;27;20137;-77
2023/01/06 07:20:11;;;;;;;2.00;1.48;;;3.30;99.90;;;;;;5111805;28;20020;-76
2023/01/06 07:22:38;;;;;;;4.15;2.47;;;3.20;99.90;;;;;;5121468;27;20043;-77
2023/01/06 07:25:06;;;;;;;4.32;2.47;;;3.20;99.90;;;;;;5118236;28;20040;-77
2023/01/06 07:27:32;;;;;;;2.50;2.10;;;3.30;99.90;;;;;;5118888;27;20050;-77
2023/01/06 07:29:58;;;;;;;2.50;1.80;;;3.20;99.90;;;;;;5136534;27;20032;-77
2023/01/06 07:32:23;;;;;;;2.17;1.98;;;3.20;99.90;;;;;;5114795;27;20063;-77
2023/01/06 07:34:49;;;;;;;2.17;1.92;;;3.30;99.90;;;;;;5117885;27;20488;-76
2023/01/06 07:37:15;;;;;;;2.00;1.70;;;3.30;99.90;;;;;;5137870;27;20039;-77
2023/01/06 07:39:40;;;;;;;2.08;1.88;;;3.30;99.90;;;;;;5126072;27;20038;-77
2023/01/06 07:42:10;;;;;;;1.90;1.77;;;3.30;99.90;;;;;;5115596;27;20035;-76
2023/01/06 07:44:36;;;;;;;2.15;2.03;;;3.30;99.90;;;;;;5122642;27;20088;-77
2023/01/06 07:47:02;;;;;;;4.90;2.20;;;3.30;99.90;;;;;;5116478;27;20028;-77
2023/01/06 07:49:28;;;;;;;2.80;2.10;;;3.30;99.90;;;;;;5115989;27;20426;-76
2023/01/06 07:51:53;;;;;;;1.95;1.80;;;3.30;99.90;;;;;;5116000;27;20051;-77
2023/01/06 07:54:19;;;;;;;1.75;1.63;;;3.20;99.90;;;;;;5116700;27;20036;-76
2023/01/06 07:56:44;;;;;;;2.35;1.63;;;3.00;99.90;;;;;;5121532;27;20020;-76
2023/01/06 07:59:10;;;;;;;1.90;1.80;;;3.10;99.90;;;;;;5111634;27;20079;-77
2023/01/06 08:01:36;;;;;;;2.28;2.10;;;3.10;99.90;;;;;;5100673;27;20061;-76
2023/01/06 08:04:01;;;;;;;2.50;2.30;;;3.20;99.90;;;;;;5103193;27;20047;-77
2023/01/06 08:06:27;;;;;;;3.45;2.47;;;3.30;99.90;;;;;;5105857;27;20045;-77
2023/01/06 08:08:53;;;;;;;4.57;2.88;;;3.40;99.90;;;;;;5114105;27;20361;-76
2023/01/06 08:11:19;;;;;;;4.22;2.72;;;3.40;99.90;;;;;;5116073;27;20035;-77
2023/01/06 08:13:44;;;;;;;2.08;1.88;;;3.40;99.90;;;;;;5111483;27;20036;-77
2023/01/06 08:16:11;;;;;;;12.75;2.47;;;3.20;99.90;;;;;;5120973;27;20043;-77
2023/01/06 08:18:37;;;;;;;2.28;1.90;;;3.10;99.90;;;;;;5121867;28;20110;-77
2023/01/06 08:21:08;;;;;;;1.85;1.75;;;3.10;99.90;;;;;;5109513;28;20027;-76
2023/01/06 08:23:35;;;;;;;3.50;2.53;;;3.20;99.90;;;;;;5112617;27;20078;-77
2023/01/06 08:26:06;;;;;;;2.08;1.70;;;3.30;99.90;;;;;;5112490;28;20040;-77
2023/01/06 08:28:31;;;;;;;2.22;2.03;;;3.40;99.90;;;;;;5112492;28;20070;-77
2023/01/06 08:30:57;;;;;;;3.28;2.17;;;3.40;99.90;;;;;;5109812;27;20044;-77
2023/01/06 08:33:24;;;;;;;2.80;2.22;;;3.50;99.90;;;;;;5120899;27;20407;-77
2023/01/06 08:36:00;;;;;;;2.20;2.03;;;3.50;99.90;;;;;;5112533;28;20011;-77
2023/01/06 08:38:28;;;;;;;2.40;2.20;;;3.60;99.90;;;;;;5129382;27;20039;-77
2023/01/06 08:40:55;;;;;;;2.42;2.08;;;3.70;99.90;;;;;;5122450;27;20029;-77
2023/01/06 08:43:21;;;;;;;2.13;1.90;;;3.70;99.90;;;;;;5122815;28;20042;-77
2023/01/06 08:45:47;;;;;;;4.05;2.30;;;3.90;99.90;;;;;;5118198;28;20672;-77
2023/01/06 08:48:14;;;;;;;1.95;1.75;;;3.90;99.90;;;;;;5123745;28;20035;-77
2023/01/06 08:50:41;;;;;;;3.67;3.28;;;4.00;99.90;;;;;;5125802;27;20035;-77
2023/01/06 08:53:08;;;;;;;3.35;2.63;;;4.00;99.90;;;;;;5120590;27;20063;-77
2023/01/06 08:55:38;;;;;;;1.92;1.80;;;4.10;99.90;;;;;;5119874;27;20466;-77
2023/01/06 08:58:04;;;;;;;3.75;2.70;;;4.30;99.90;;;;;;5114735;27;20034;-77
2023/01/06 09:00:30;;;;;;;3.72;2.72;;;4.40;99.90;;;;;;5114738;27;20065;-76
2023/01/06 09:02:55;;;;;;;4.05;2.83;;;4.60;99.90;;;;;;5118655;27;20035;-76
2023/01/06 09:05:21;;;;;;;3.33;2.85;;;4.70;99.90;;;;;;5112748;27;20055;-77
2023/01/06 09:07:48;;;;;;;3.78;2.55;;;4.80;99.90;;;;;;5118287;27;20091;-76
2023/01/06 09:10:14;;;;;;;4.25;3.10;;;5.00;99.90;;;;;;5141195;27;20100;-76
2023/01/06 09:12:40;;;;;;;2.95;2.65;;;5.10;99.90;;;;;;5119075;28;20032;-76
2023/01/06 09:15:08;;;;;;;;;;;5.30;99.90;;;;;;5128593;27;20031;-77
2023/01/06 09:17:33;;;;;;;3.13;2.72;;;5.40;99.90;;;;;;5121338;27;19946;-76
2023/01/06 09:19:59;;;;;;;0.98;0.98;;;5.60;99.90;;;;;;5121557;27;20039;-76
2023/01/06 09:22:25;;;;;;;3.05;1.80;;;5.90;99.90;;;;;;5121266;28;20035;-77
2023/01/06 09:24:50;;;;;;;1.65;1.55;;;5.90;99.90;;;;;;5134945;27;20439;-77
2023/01/06 09:27:18;;;;;;;2.20;1.98;;;6.00;99.90;;;;;;5124261;28;20026;-76
2023/01/06 09:29:45;;;;;;;1.85;1.55;;;6.10;99.90;;;;;;5116439;28;20044;-76
2023/01/06 09:32:11;;;;;;;2.23;1.70;;;6.20;99.90;;;;;;5102795;22;20041;-35
2023/01/06 09:34:37;;;;;;;1.60;1.35;;;6.40;99.90;;;;;;5062751;28;20031;-34
2023/01/06 09:37:02;;;;;;;0.93;0.90;;;6.40;99.90;;;;;;5061389;28;20038;-32
2023/01/06 09:39:28;;;;;;;2.10;1.90;;;6.60;99.90;;;;;;5063268;28;20029;-35
2023/01/06 09:42:24;;;;;;;3.40;1.55;;;6.50;99.90;;;;;;5064860;28;20492;-34
2023/01/06 09:45:24;;;;;;;1.38;1.27;;;6.60;99.90;;;;;;5064028;28;20063;-34
2023/01/06 09:47:58;;;;;;;1.05;1.05;;;6.70;99.90;;;;;;5048044;28;20036;-32
2023/01/06 09:50:36;;;;;;;2.10;1.90;;;6.80;99.90;;;;;;5066769;28;20532;-33
2023/01/06 09:53:14;;;;;;;1.65;1.55;;;6.90;99.90;;;;;;5054693;28;20774;-29
2023/01/06 09:55:46;;;;;;;2.17;1.77;;;7.10;99.90;;;;;;5066186;28;20033;-34
2023/01/06 09:58:20;;;;;;;3.35;2.42;;;7.20;99.90;;;;;;5041712;28;20774;-33
2023/01/06 10:00:48;;;;;;;3.92;3.05;;;7.30;99.90;;;;;;5048059;28;20036;-32
2023/01/06 10:03:26;;;;;;;3.25;2.92;;;7.40;99.90;;;;;;5064038;28;20035;-32
2023/01/06 10:06:03;;;;;;;1.47;1.40;;;7.40;99.90;;;;;;5058333;28;20021;-33
2023/01/06 10:08:32;;;;;;;3.15;2.70;;;7.30;99.90;;;;;;5058367;28;20444;-34
2023/01/06 10:11:21;;;;;;;3.75;3.45;;;7.20;99.90;;;;;;5065015;28;20020;-31
2023/01/06 10:13:57;;;;;;;2.25;1.85;;;7.20;99.90;;;;;;5059347;28;20060;-31
2023/01/06 10:16:26;;;;;;;2.17;1.98;;;7.10;99.90;;;;;;5058318;28;20037;-34
2023/01/06 10:18:51;;;;;;;;;;;7.10;99.90;;;;;;5062883;28;20090;-36
2023/01/06 10:21:29;;;;;;;2.80;2.55;;;6.80;99.90;;;;;;5061088;28;20472;-33
2023/01/06 10:24:10;;;;;;;4.90;3.05;;;6.70;99.90;;;;;;5060418;28;20147;-34
2023/01/06 10:26:43;;;;;;;4.63;3.72;;;6.70;99.90;;;;;;5062902;28;20025;-38
2023/01/06 10:29:20;;;;;;;4.65;3.17;;;6.70;99.90;;;;;;5062315;28;20093;-35
2023/01/06 10:31:47;;;;;;;1.63;1.52;;;6.60;99.90;;;;;;5076087;28;20131;-34
2023/01/06 10:34:26;;;;;;;4.38;2.97;;;6.60;99.90;;;;;;5063322;28;20466;-38
2023/01/06 10:37:05;;;;;;;3.28;1.88;;;6.60;99.90;;;;;;5064478;28;20079;-37
2023/01/06 10:39:33;;;;;;;3.17;2.85;;;6.60;99.90;;;;;;5041939;28;20043;-38
2023/01/06 10:45:13;;;;;;;5.50;3.20;;;6.70;99.90;;;;;;5062634;28;20967;-39
2023/01/06 10:47:41;;;;;;;5.10;3.05;;;6.80;99.90;;;;;;5062248;28;20021;-36
2023/01/06 10:50:15;;;;;;;3.60;2.65;;;6.80;99.90;;;;;;5061043;28;20039;-38
2023/01/06 10:52:41;;;;;;;6.28;3.72;;;6.90;99.90;;;;;;5061830;28;20737;-38
2023/01/06 10:55:32;;;;;;;4.70;3.40;;;7.00;99.90;;;;;;5061293;28;20075;-39
2023/01/06 10:58:04;;;;;;;5.43;3.35;;;7.10;99.90;;;;;;5069353;28;20047;-37
2023/01/06 11:00:31;;;;;;;2.85;2.58;;;7.10;99.90;;;;;;5065409;28;20044;-37
2023/01/06 11:03:03;;;;;;;4.15;2.78;;;7.10;99.90;;;;;;5062567;28;20103;-35
2023/01/06 11:05:31;;;;;;;5.07;3.20;;;7.10;99.90;;;;;;5070389;28;20550;-36
2023/01/06 11:08:07;;;;;;;6.85;3.38;;;7.20;99.90;;;;;;5066617;28;20028;-39
2023/01/06 11:10:42;;;;;;;5.20;3.35;;;7.30;99.90;;;;;;5061884;28;20405;-36
2023/01/06 11:13:27;;;;;;;6.95;4.15;;;7.50;99.90;;;;;;5062038;28;20028;-34
2023/01/06 11:15:54;;;;;;;5.22;3.15;;;7.50;99.90;;;;;;5070692;28;20092;-36
2023/01/06 11:18:28;;;;;;;7.95;3.50;;;7.60;99.90;;;;;;5069838;28;20048;-39
2023/01/06 11:21:10;;;;;;;6.00;3.75;;;7.60;99.90;;;;;;5065041;28;20029;-37
2023/01/06 11:23:38;;;;;;;6.93;4.75;;;7.80;99.90;;;;;;5065971;28;20029;-36
2023/01/06 11:26:14;;;;;;;6.03;4.85;;;8.00;99.90;;;;;;5069068;28;20041;-38
2023/01/06 11:28:45;;;;;;;2.50;2.30;;;8.10;99.90;;;;;;5069402;28;20070;-36
2023/01/06 11:31:14;;;;;;;4.40;2.88;;;8.20;99.90;;;;;;5060756;28;20128;-38
2023/01/06 11:33:50;;;;;;;3.58;2.72;;;8.20;99.90;;;;;;5068624;28;20385;-38
2023/01/06 11:36:17;;;;;;;6.30;3.80;;;8.10;99.90;;;;;;5065574;28;20103;-38
2023/01/06 11:38:47;;;;;;;5.03;3.22;;;8.20;99.90;;;;;;5069047;28;20501;-37
2023/01/06 11:41:27;;;;;;;2.05;1.92;;;8.20;99.90;;;;;;5068322;28;20611;-36
2023/01/06 11:43:59;;;;;;;2.20;1.98;;;8.40;99.90;;;;;;5068496;28;20064;-35
2023/01/06 11:46:26;;;;;;;2.63;2.03;;;8.50;99.90;;;;;;5066068;28;20474;-38
2023/01/06 11:49:02;;;;;;;3.47;3.17;;;8.50;99.90;;;;;;5056196;28;20036;-36
2023/01/06 11:51:41;;;;;;;2.78;2.55;;;8.70;99.90;;;;;;5067472;28;20098;-38
2023/01/06 11:54:25;;;;;;;1.77;1.67;;;8.80;99.90;;;;;;5068176;28;20077;-35
2023/01/06 11:57:04;;;;;;;1.70;1.60;;;8.90;99.90;;;;;;5067476;28;20481;-38
2023/01/06 11:59:54;;;;;;;2.30;2.10;;;8.90;99.90;;;;;;5065798;28;20505;-37
2023/01/06 12:02:30;;;;;;;1.67;1.58;;;9.10;99.90;;;;;;5042687;28;20543;-37
2023/01/06 12:04:56;;;;;;;2.20;1.70;;;9.10;99.90;;;;;;5050027;28;20029;-38
2023/01/06 12:07:45;;;;;;;2.53;2.22;;;9.20;99.90;;;;;;5042565;28;20569;-37
2023/01/06 12:10:23;;;;;;;2.42;1.73;;;9.20;99.90;;;;;;5043172;28;20087;-38
2023/01/06 12:12:49;;;;;;;1.40;1.30;;;9.10;99.90;;;;;;5043920;28;20473;-36
2023/01/06 12:15:17;;;;;;;2.15;1.73;;;9.00;99.90;;;;;;5049985;28;20043;-36
2023/01/06 12:18:14;;;;;;;1.90;1.80;;;8.90;99.90;;;;;;5042683;28;20033;-37
2023/01/06 12:20:43;;;;;;;1.45;1.35;;;8.90;99.90;;;;;;5043281;28;20113;-38
2023/01/06 12:23:20;;;;;;;1.92;1.83;;;8.90;99.90;;;;;;5043225;28;20029;-37
2023/01/06 12:25:48;;;;;;;2.17;1.98;;;8.90;99.90;;;;;;5035708;28;20025;-37
2023/01/06 12:28:19;;;;;;;1.60;1.50;;;8.90;99.90;;;;;;5037391;28;20453;-35
2023/01/06 12:30:56;;;;;;;1.52;1.40;;;9.00;99.90;;;;;;5038815;28;20025;-37
2023/01/06 12:33:24;;;;;;;1.40;1.20;;;9.20;99.90;;;;;;5040653;28;20021;-37
2023/01/06 12:35:55;;;;;;;0.77;0.77;;;9.20;99.90;;;;;;5047591;28;20134;-37
2023/01/06 12:38:48;;;;;;;1.30;1.20;;;9.30;99.90;;;;;;5042350;28;20039;-34
2023/01/06 12:41:26;;;;;;;1.45;1.42;;;9.40;99.90;;;;;;5043871;28;20020;-38
2023/01/06 12:44:20;;;;;;;3.65;1.38;;;9.40;99.90;;;;;;5043783;28;20606;-36
2023/01/06 12:47:13;;;;;;;0.85;0.85;;;9.40;99.90;;;;;;5040826;28;20048;-36
2023/01/06 12:49:48;;;;;;;0.70;0.70;;;9.40;99.90;;;;;;5037606;28;20036;-37
2023/01/06 12:52:23;;;;;;;0.80;0.80;;;9.40;99.90;;;;;;5045249;28;20021;-35
2023/01/06 12:54:56;;;;;;;2.83;1.48;;;9.40;99.90;;;;;;5040924;28;20114;-38
2023/01/06 12:57:36;;;;;;;1.38;1.27;;;9.30;99.90;;;;;;5043832;28;20104;-38
2023/01/06 13:00:12;;;;;;;1.77;1.38;;;9.20;99.90;;;;;;5039112;28;20024;-39
2023/01/06 13:03:00;;;;;;;1.20;1.08;;;9.20;99.90;;;;;;5046372;28;20059;-36
2023/01/06 13:05:31;;;;;;;0.88;0.88;;;9.10;99.90;;;;;;5038668;28;20028;-37
2023/01/06 13:08:05;;;;;;;1.42;1.00;;;9.10;99.90;;;;;;5044155;28;20032;-32
2023/01/06 13:10:40;;;;;;;1.45;1.23;;;9.20;99.90;;;;;;5040372;28;20040;-38
2023/01/06 13:13:30;;;;;;;1.48;1.38;;;9.20;99.90;;;;;;5037074;28;20801;-35
2023/01/06 13:15:58;;;;;;;1.80;1.70;;;9.20;99.90;;;;;;5037437;28;20029;-36
2023/01/06 13:18:40;;;;;;;1.40;1.30;;;9.20;99.90;;;;;;5044790;28;20045;-38
2023/01/06 13:21:18;;;;;;;3.63;1.70;;;9.20;99.90;;;;;;5036775;28;20037;-35
2023/01/06 13:23:50;;;;;;;0.93;0.90;;;9.20;99.90;;;;;;5038691;28;20043;-38
2023/01/06 13:26:22;;;;;;;2.80;1.70;;;9.20;99.90;;;;;;5038087;28;20768;-36